Time;durP1;ratioP1;P1;durP2;ratioP2;P2;SDS_P1;SDS_P2;PMS_P1;PMS_P2;Temp;Humidity;BMP_temperature;BMP_pressure;BME280_temperature;BME280_humidity;BME280_pressure;Samples;Min_cycle;Max_cycle;Signal;HPM_P1;HPM_P2
2022/11/17 00:01:53;;;;;;;67.00;40.13;;;;;;;9.25;100.00;-871.38;5093483;28;20631;-57
2022/11/17 00:04:20;;;;;;;66.17;40.30;;;;;;;9.43;100.00;85.97;5093134;28;20187;-57
2022/11/17 00:06:47;;;;;;;65.63;39.27;;;;;;;9.48;100.00;724.25;5093300;28;20627;-56
2022/11/17 00:09:16;;;;;;;69.27;40.90;;;;;;;9.56;100.00;1362.94;5093234;28;20239;-57
2022/11/17 00:14:35;;;;;;;63.60;39.53;;;;;;;9.24;100.00;-871.41;5092911;28;20180;-57
2022/11/17 00:17:06;;;;;;;68.00;39.97;;;;;;;9.58;100.00;-2145.59;5091928;28;20237;-57
2022/11/17 00:22:17;;;;;;;69.30;40.57;;;;;;;9.52;100.00;-4057.78;5077680;28;20178;-56
2022/11/17 00:24:45;;;;;;;71.70;41.03;;;;;;;9.43;100.00;-1189.53;5093009;28;20192;-57
2022/11/17 00:27:12;;;;;;;65.00;40.97;;;;;;;9.52;100.00;-4376.34;5092780;28;20184;-57
2022/11/17 00:29:39;;;;;;;67.20;40.10;;;;;;;9.58;100.00;-4695.03;5092722;28;20184;-57
2022/11/17 00:34:56;;;;;;;65.77;36.60;;;;;;;9.47;100.00;-870.56;5092559;28;20203;-57
2022/11/17 00:37:24;;;;;;;60.10;36.80;;;;;;;9.54;100.00;-1189.16;5092884;28;20635;-57
2022/11/17 00:39:50;;;;;;;59.20;34.93;;;;;;;9.69;100.00;-5013.91;5091315;28;20195;-57
2022/11/17 00:42:17;;;;;;;62.67;37.33;;;;;;;9.83;100.00;-8517.56;5092510;28;20188;-57
2022/11/17 00:44:44;;;;;;;64.00;37.43;;;;;;;9.92;100.00;-10427.97;5092712;28;20192;-57
2022/11/17 00:47:13;;;;;;;63.83;36.90;;;;;;;10.05;100.00;-10747.72;5092375;28;20192;-56
2022/11/17 00:49:39;;;;;;;64.83;39.23;;;;;;;10.04;100.00;-9156.22;5092369;28;20184;-56
2022/11/17 00:52:06;;;;;;;70.40;43.03;;;;;;;10.15;100.00;-10112.31;5092560;28;20638;-57
2022/11/17 00:54:34;;;;;;;72.30;42.93;;;;;;;10.27;100.00;-10750.38;5092320;28;20180;-57
2022/11/17 00:57:01;;;;;;;78.90;44.70;;;;;;;10.26;100.00;-10431.94;5092443;28;20208;-58
2022/11/17 00:59:28;;;;;;;80.03;47.57;;;;;;;10.32;100.00;-10114.25;5092144;28;20188;-56
2022/11/17 01:01:55;;;;;;;75.63;46.43;;;;;;;10.45;100.00;-10115.72;5092489;28;20206;-57
2022/11/17 01:04:23;;;;;;;75.07;45.87;;;;;;;10.56;100.00;-9798.28;5092111;28;20184;-58
2022/11/17 01:06:50;;;;;;;79.17;45.30;;;;;;;10.64;100.00;-8843.25;5092092;28;20184;-58
2022/11/17 01:09:19;;;;;;;65.00;41.47;;;;;;;10.72;100.00;-6612.06;5092372;28;20646;-57
2022/11/17 01:11:47;;;;;;;64.97;40.80;;;;;;;10.76;100.00;-4378.72;5092316;28;20620;-57
2022/11/17 01:14:16;;;;;;;65.67;39.63;;;;;;;10.65;100.00;-546.66;5092062;28;20184;-57
2022/11/17 01:16:44;;;;;;;64.80;39.60;;;;;;;10.57;100.00;1050.72;5091856;28;20211;-57
2022/11/17 01:19:13;;;;;;;67.57;41.27;;;;;;;10.64;100.00;731.53;5091901;28;20186;-58
2022/11/17 01:21:41;;;;;;;61.20;39.73;;;;;;;10.68;100.00;731.81;5092145;28;20477;-57
2022/11/17 01:24:10;;;;;;;63.80;39.57;;;;;;;10.53;100.00;-1186.00;5092118;28;20630;-58
2022/11/17 01:26:39;;;;;;;62.97;38.17;;;;;;;10.53;100.00;-2463.28;5092064;28;20180;-57
2022/11/17 01:29:07;;;;;;;59.27;36.50;;;;;;;10.43;100.00;-5335.00;5091629;28;20194;-57
2022/11/17 01:31:36;;;;;;;59.40;38.27;;;;;;;10.48;100.00;-6291.91;5091696;28;20190;-58
2022/11/17 01:34:03;;;;;;;65.97;38.83;;;;;;;10.52;100.00;-7248.63;5091591;28;20276;-58
2022/11/17 01:37:17;;;;;;;63.87;39.67;;;;;;;10.54;100.00;-8523.69;5091673;28;20212;-57
2022/11/17 01:39:23;;;;;;;64.20;37.70;;;;;;;10.66;100.00;-8843.44;5091608;28;20218;-58
2022/11/17 01:41:50;;;;;;;63.83;38.70;;;;;;;10.76;100.00;-8844.31;5091682;28;20188;-57
2022/11/17 01:44:50;;;;;;;64.63;37.83;;;;;;;10.75;100.00;-8206.66;5092005;28;20570;-58
2022/11/17 01:47:21;;;;;;;73.13;38.50;;;;;;;10.68;100.00;-8524.84;5089830;28;20196;-57
2022/11/17 01:49:49;;;;;;;69.67;40.30;;;;;;;10.52;100.00;-10116.50;5091952;28;20184;-57
2022/11/17 01:52:16;;;;;;;63.70;39.20;;;;;;;10.54;100.00;-11072.16;5091625;28;20274;-58
2022/11/17 01:54:47;;;;;;;66.83;38.97;;;;;;;10.57;100.00;-11072.47;5091867;28;20207;-58
2022/11/17 01:57:17;;;;;;;60.87;38.27;;;;;;;10.78;100.00;-11075.09;5091697;28;20203;-57
2022/11/17 01:59:48;;;;;;;60.33;38.77;;;;;;;10.75;100.00;-11393.28;5091801;28;20559;-58
2022/11/17 02:02:15;;;;;;;62.60;37.53;;;;;;;11.03;100.00;-12989.78;5091808;28;20212;-57
2022/11/17 02:04:48;;;;;;;67.93;40.87;;;;;;;11.15;100.00;-14583.94;5091729;28;20681;-57
2022/11/17 02:07:20;;;;;;;66.40;41.90;;;;;;;11.28;100.00;-15860.03;5091463;28;20187;-58
2022/11/17 02:09:49;;;;;;;68.73;40.87;;;;;;;11.43;100.00;-17136.53;5091717;28;20188;-58
2022/11/17 02:12:16;;;;;;;60.20;39.10;;;;;;;11.67;100.00;-16823.28;5091675;28;20656;-57
2022/11/17 02:14:45;;;;;;;65.37;40.07;;;;;;;11.79;100.00;-16188.88;5091366;28;20194;-58
2022/11/17 02:17:12;;;;;;;61.73;38.43;;;;;;;11.80;100.00;-15552.00;5091262;28;20211;-58
2022/11/17 02:19:42;;;;;;;62.60;38.03;;;;;;;11.99;100.00;-13642.66;5091229;28;20271;-57
2022/11/17 02:22:47;;;;;;;63.97;37.80;;;;;;;12.03;100.00;-11410.03;5091653;28;20563;-57
2022/11/17 02:25:30;;;;;;;58.20;38.17;;;;;;;11.95;100.00;-9493.78;5091611;28;20184;-58
2022/11/17 02:28:07;;;;;;;55.50;36.43;;;;;;;11.92;100.00;-6938.19;5091218;28;20188;-57
2022/11/17 02:30:40;;;;;;;58.13;36.43;;;;;;;11.93;100.00;-6618.69;5091131;28;20275;-57
2022/11/17 02:33:12;;;;;;;62.07;37.73;;;;;;;11.91;100.00;-6618.56;5090989;28;20232;-58
2022/11/17 02:35:45;;;;;;;57.90;37.53;;;;;;;11.90;100.00;-6298.94;5091357;28;20311;-57
2022/11/17 02:38:23;;;;;;;56.63;36.97;;;;;;;11.95;100.00;-5979.53;5091434;28;20658;-58
2022/11/17 02:40:58;;;;;;;58.43;37.80;;;;;;;11.86;100.00;-5339.91;5093624;28;20550;-58
2022/11/17 02:46:21;;;;;;;59.83;36.30;;;;;;;11.63;100.00;-6936.44;5094899;28;20179;-57
2022/11/17 02:48:54;;;;;;;56.90;38.63;;;;;;;11.66;100.00;-6936.63;5094960;28;20657;-58
2022/11/17 02:51:24;;;;;;;66.13;39.37;;;;;;;11.65;100.00;-6936.56;5094640;28;20283;-58
2022/11/17 02:53:54;;;;;;;60.77;37.60;;;;;;;11.52;100.00;-6297.06;5094559;28;20188;-57
2022/11/17 02:56:21;;;;;;;66.13;40.57;;;;;;;11.42;100.00;-6296.56;5094833;28;20573;-57
2022/11/17 02:58:52;;;;;;;67.47;39.83;;;;;;;11.43;100.00;-6615.97;5094753;28;20535;-57
2022/11/17 03:01:37;;;;;;;69.03;40.13;;;;;;;11.36;100.00;-6934.88;5094776;28;20191;-57
2022/11/17 03:04:23;;;;;;;62.63;38.10;;;;;;;11.34;100.00;-7253.97;5094678;28;20580;-58
2022/11/17 03:07:05;;;;;;;70.90;40.83;;;;;;;11.49;100.00;-7574.16;5094291;28;20180;-57
2022/11/17 03:09:44;;;;;;;66.97;38.87;;;;;;;11.46;100.00;-7254.72;5093120;28;20195;-57
2022/11/17 03:12:19;;;;;;;69.67;41.17;;;;;;;11.36;100.00;-6934.88;5094528;28;20188;-56
2022/11/17 03:14:55;;;;;;;64.20;38.63;;;;;;;11.08;100.00;-9803.81;5094428;28;20602;-58
2022/11/17 03:17:30;;;;;;;63.17;39.70;;;;;;;11.12;100.00;-10760.69;5094407;28;20570;-58
2022/11/17 03:20:02;;;;;;;61.13;38.73;;;;;;;11.21;100.00;-10443.00;5094100;28;20202;-58
2022/11/17 03:22:36;;;;;;;67.03;40.20;;;;;;;11.19;100.00;-10442.75;5094392;28;20188;-58
2022/11/17 03:25:06;;;;;;;64.47;40.43;;;;;;;11.31;100.00;-10763.03;5094251;28;20505;-58
2022/11/17 03:27:37;;;;;;;66.73;40.13;;;;;;;11.28;100.00;-10762.66;5093768;28;20184;-57
2022/11/17 03:30:09;;;;;;;60.00;38.97;;;;;;;11.30;100.00;-9487.22;5094128;28;20662;-57
2022/11/17 03:32:40;;;;;;;63.80;39.00;;;;;;;11.23;100.00;-8529.56;5093614;28;20238;-58
2022/11/17 03:35:11;;;;;;;70.47;38.47;;;;;;;11.43;100.00;-8531.28;5093702;28;20180;-57
2022/11/17 03:37:42;;;;;;;59.43;38.13;;;;;;;11.50;100.00;-8531.91;5093848;28;20208;-58
2022/11/17 03:40:11;;;;;;;62.37;38.17;;;;;;;11.49;100.00;-8212.63;5093611;28;20188;-58
2022/11/17 03:42:41;;;;;;;83.13;47.10;;;;;;;11.61;100.00;-7575.03;5093477;28;20192;-58
2022/11/17 03:45:15;;;;;;;87.93;53.33;;;;;;;11.57;100.00;-6616.72;5093497;28;20200;-58
2022/11/17 03:47:43;;;;;;;83.67;47.57;;;;;;;11.42;100.00;-6296.59;5093484;28;20191;-58
2022/11/17 03:50:16;;;;;;;66.83;42.27;;;;;;;11.34;100.00;-7573.16;5093747;28;20207;-58
2022/11/17 03:52:44;;;;;;;66.80;41.43;;;;;;;11.31;100.00;-8849.34;5093342;28;20189;-57
2022/11/17 03:55:13;;;;;;;67.63;41.00;;;;;;;11.26;100.00;-9167.91;5093242;28;20199;-58
2022/11/17 03:57:43;;;;;;;65.93;40.03;;;;;;;11.50;100.00;-9170.13;5093583;28;20204;-57
2022/11/17 04:00:14;;;;;;;70.80;40.27;;;;;;;11.15;100.00;-8528.88;5093525;28;20728;-57
2022/11/17 04:02:42;;;;;;;64.33;39.33;;;;;;;11.34;100.00;-9487.63;5093549;28;20188;-58
2022/11/17 04:05:10;;;;;;;63.07;41.63;;;;;;;11.44;100.00;-9488.69;5093483;28;20259;-57
2022/11/17 04:07:38;;;;;;;69.57;42.27;;;;;;;11.56;100.00;-9489.88;5093072;28;20271;-58
2022/11/17 04:10:08;;;;;;;73.80;42.63;;;;;;;11.58;100.00;-10447.22;5093100;28;20217;-57
2022/11/17 04:18:05;;;;;;;73.80;40.20;;;;;;;11.74;100.00;-6298.16;5092988;28;20670;-57
2022/11/17 04:20:35;;;;;;;64.63;38.73;;;;;;;11.70;100.00;-5978.47;5092964;28;20230;-57
2022/11/17 04:23:10;;;;;;;66.30;38.70;;;;;;;11.86;100.00;-7257.31;5092898;28;20191;-57
2022/11/17 04:28:38;;;;;;;66.73;39.00;;;;;;;11.87;100.00;-6937.91;5092825;28;20175;-58
2022/11/17 04:31:10;;;;;;;63.83;38.60;;;;;;;11.87;100.00;-6937.91;5092692;28;20210;-58
2022/11/17 04:33:38;;;;;;;66.13;41.37;;;;;;;11.93;100.00;-6299.09;5092533;28;20231;-57
2022/11/17 04:36:06;;;;;;;62.63;40.20;;;;;;;11.96;100.00;-6938.41;5092542;28;20210;-57
2022/11/17 04:38:33;;;;;;;73.27;41.03;;;;;;;11.90;100.00;-7896.53;5092846;28;20558;-57
2022/11/17 04:43:50;;;;;;;67.00;41.00;;;;;;;12.06;100.00;-7897.69;5092572;28;20180;-57
2022/11/17 04:46:19;;;;;;;81.93;40.23;;;;;;;11.85;100.00;-8215.50;5092484;28;20180;-57
2022/11/17 04:48:47;;;;;;;70.13;40.53;;;;;;;11.88;100.00;-8854.47;5092754;28;20608;-58
2022/11/17 04:51:15;;;;;;;73.13;41.83;;;;;;;12.07;100.00;-8856.22;5092330;28;20190;-57
2022/11/17 04:53:43;;;;;;;76.23;40.03;;;;;;;12.13;100.00;-8217.78;5092299;28;20199;-58
2022/11/17 04:56:10;;;;;;;67.37;40.10;;;;;;;12.14;100.00;-7898.31;5092548;28;20233;-57
2022/11/17 04:58:37;;;;;;;70.27;41.27;;;;;;;12.19;100.00;-7898.69;5092628;28;20634;-57
2022/11/17 05:01:15;;;;;;;78.30;41.13;;;;;;;12.21;100.00;-7579.25;5092211;28;20617;-57
2022/11/17 05:03:45;;;;;;;75.80;41.60;;;;;;;12.17;100.00;-7259.31;5091689;28;20286;-57
2022/11/17 05:06:15;;;;;;;75.17;41.03;;;;;;;12.21;100.00;-6300.50;5092428;28;20185;-57
2022/11/17 05:08:41;;;;;;;79.77;41.30;;;;;;;12.26;100.00;-5661.09;5092040;28;20184;-58
2022/11/17 05:13:54;;;;;;;74.83;39.07;;;;;;;12.01;100.00;-6938.69;5092197;28;20180;-57
2022/11/17 05:19:15;;;;;;;67.27;38.70;;;;;;;12.23;100.00;-9496.63;5091990;28;20662;-57
2022/11/17 05:21:42;;;;;;;65.50;38.83;;;;;;;12.23;100.00;-9496.63;5091865;28;20184;-57
2022/11/17 05:24:08;;;;;;;90.13;42.53;;;;;;;12.32;100.00;-9178.03;5091797;28;20194;-57
2022/11/17 05:26:37;;;;;;;65.87;36.53;;;;;;;12.41;100.00;-9178.84;5091999;28;20631;-57
2022/11/17 05:29:06;;;;;;;62.43;39.17;;;;;;;12.50;100.00;-9179.72;5092373;28;20187;-58
2022/11/17 05:31:33;;;;;;;84.97;42.43;;;;;;;12.51;100.00;-7581.31;5091930;28;20309;-58
2022/11/17 05:34:01;;;;;;;73.60;39.80;;;;;;;12.62;100.00;-5022.38;5091618;28;20305;-57
2022/11/17 05:36:30;;;;;;;72.60;40.10;;;;;;;12.63;100.00;-2781.03;5091635;28;20215;-56
2022/11/17 05:38:57;;;;;;;93.97;39.83;;;;;;;12.73;100.00;-2460.56;5091889;28;20635;-58
2022/11/17 05:41:24;;;;;;;69.40;41.47;;;;;;;12.75;100.00;-1499.19;5091659;28;20219;-57
2022/11/17 05:43:52;;;;;;;86.27;41.70;;;;;;;12.67;100.00;-1178.97;5091633;28;20188;-58
2022/11/17 05:46:20;;;;;;;72.60;41.60;;;;;;;12.68;100.00;-1819.84;5091946;28;20586;-57
2022/11/17 05:48:48;;;;;;;76.80;40.60;;;;;;;12.70;100.00;-2140.22;5091553;28;20282;-58
2022/11/17 05:51:15;;;;;;;77.50;40.10;;;;;;;12.77;100.00;-2780.91;5091865;28;20615;-57
2022/11/17 05:53:44;;;;;;;83.00;41.33;;;;;;;12.86;100.00;-3421.66;5091518;28;20558;-57
2022/11/17 05:56:24;;;;;;;101.50;43.90;;;;;;;12.86;100.00;-2460.41;5091691;28;20192;-58
2022/11/17 05:58:55;;;;;;;90.93;42.83;;;;;;;13.08;100.00;-856.88;5091768;28;20563;-58
2022/11/17 06:01:23;;;;;;;92.37;45.10;;;;;;;12.92;100.00;1066.94;5091441;28;20191;-57
2022/11/17 06:03:53;;;;;;;97.37;50.57;;;;;;;13.01;100.00;1067.59;5091435;28;20200;-58
2022/11/17 06:06:21;;;;;;;103.73;51.97;;;;;;;12.96;100.00;1067.25;5091335;28;20180;-58
2022/11/17 06:08:50;;;;;;;100.47;52.47;;;;;;;12.95;100.00;-215.97;5091487;28;20215;-56
2022/11/17 06:11:18;;;;;;;93.43;49.47;;;;;;;12.96;100.00;-1178.00;5091522;28;20230;-56
2022/11/17 06:13:45;;;;;;;112.27;52.33;;;;;;;13.04;100.00;-2139.59;5091621;28;20219;-57
2022/11/17 06:16:17;;;;;;;101.57;51.20;;;;;;;13.06;100.00;-1498.34;5094545;28;20184;-57
2022/11/17 06:18:47;;;;;;;96.97;47.40;;;;;;;12.90;100.00;-3421.66;5095234;28;20202;-59
2022/11/17 06:21:16;;;;;;;91.20;44.53;;;;;;;13.05;100.00;-3742.13;5095063;28;20180;-58
2022/11/17 06:23:46;;;;;;;81.73;43.40;;;;;;;12.82;100.00;-4382.53;5095408;28;20582;-59
2022/11/17 06:26:16;;;;;;;83.27;41.07;;;;;;;13.22;100.00;-7266.09;5095133;28;20184;-58
2022/11/17 06:28:46;;;;;;;69.07;34.77;;;;;;;13.43;100.00;-7587.69;5095060;28;20188;-58
2022/11/17 06:31:14;;;;;;;57.63;32.67;;;;;;;14.08;100.00;-2458.81;5094975;28;20185;-58
2022/11/17 06:33:42;;;;;;;84.30;39.60;;;;;;;14.69;100.00;3332.38;5094709;28;20238;-58
2022/11/17 06:36:09;;;;;;;64.37;31.97;;;;;;;15.31;100.00;32473.00;5095109;28;20193;-59
2022/11/17 06:38:36;;;;;;;54.23;30.63;;;;;;;15.80;100.00;63556.47;5094708;28;20298;-63
2022/11/17 06:41:04;;;;;;;56.10;31.17;;;;;;;16.69;100.00;113341.72;5094717;28;20194;-61
2022/11/17 06:43:33;;;;;;;53.40;30.33;;;;;;;17.12;100.00;150339.69;5094955;28;20188;-62
2022/11/17 06:46:05;;;;;;;47.20;28.57;;;;;;;17.61;100.00;150464.25;5094663;28;20202;-59
2022/11/17 06:48:34;;;;;;;37.63;24.33;;;;;;;18.53;100.00;150695.72;5094778;28;20644;-61
2022/11/17 06:51:04;;;;;;;77.07;40.83;;;;;;;19.26;100.00;150877.63;5094446;28;20191;-62
2022/11/17 06:53:31;;;;;;;81.13;38.00;;;;;;;19.61;100.00;150968.00;5094786;28;20569;-59
2022/11/17 06:56:01;;;;;;;82.17;38.60;;;;;;;19.81;100.00;151016.38;5094253;28;20279;-61
2022/11/17 06:58:28;;;;;;;87.87;39.60;;;;;;;20.58;100.00;151211.19;5094391;28;20204;-61
2022/11/17 07:01:01;;;;;;;94.07;43.03;;;;;;;21.12;100.00;151347.59;5093944;28;20196;-61
2022/11/17 07:03:28;;;;;;;112.87;45.00;;;;;;;21.19;100.00;151365.41;5094390;28;20188;-60
2022/11/17 07:05:59;;;;;;;85.40;41.05;;;;;;;22.02;100.00;151573.22;5094403;28;20187;-61
2022/11/17 07:08:26;;;;;;;106.75;42.00;;;;;;;22.23;100.00;151626.78;5094499;28;20635;-60
2022/11/17 07:10:54;;;;;;;78.70;39.05;;;;;;;22.86;100.00;151784.94;5094038;28;20186;-62
2022/11/17 07:13:22;;;;;;;69.93;34.47;;;;;;;23.64;100.00;151982.75;5094288;28;20667;-61
2022/11/17 07:15:49;;;;;;;35.15;25.05;;;;;;;23.82;100.00;152027.41;5093770;28;20191;-62
2022/11/17 07:18:19;;;;;;;29.83;21.77;;;;;;;24.13;100.00;152106.59;5093770;28;20243;-61
2022/11/17 07:20:49;;;;;;;25.77;18.92;;;;;;;24.13;100.00;152106.59;5093788;28;20227;-61
2022/11/17 07:23:16;;;;;;;17.85;16.10;;;;;;;25.11;100.00;152354.44;5093940;28;20184;-61
2022/11/17 07:25:42;;;;;;;16.50;14.90;;;;;;;26.26;99.53;152644.66;5093599;28;20658;-60
2022/11/17 07:28:10;;;;;;;16.25;14.57;;;;;;;27.05;92.14;152844.19;5093954;28;20180;-62
2022/11/17 07:30:37;;;;;;;15.52;14.27;;;;;;;27.15;89.50;152869.78;5093641;28;20295;-62
2022/11/17 07:33:05;;;;;;;15.45;13.90;;;;;;;28.22;84.96;153139.88;5093521;28;20232;-61
2022/11/17 07:35:35;;;;;;;14.60;13.60;;;;;;;28.97;78.43;153331.97;5093483;28;20188;-62
2022/11/17 07:38:02;;;;;;;16.02;14.35;;;;;;;28.98;76.34;153334.50;5093517;28;20666;-62
2022/11/17 07:40:31;;;;;;;18.33;14.30;;;;;;;29.31;74.88;153417.84;5093241;28;20188;-62
2022/11/17 07:42:58;;;;;;;15.35;13.98;;;;;;;29.58;71.76;153484.47;5093793;28;20229;-61
2022/11/17 07:45:26;;;;;;;16.02;14.07;;;;;;;29.46;72.87;153454.97;5094164;28;20271;-62
2022/11/17 07:47:55;;;;;;;14.85;13.52;;;;;;;29.41;72.38;153443.44;5093639;28;20237;-62
2022/11/17 07:50:23;;;;;;;13.25;12.35;;;;;;;29.37;71.85;153433.19;5093694;28;20199;-61
2022/11/17 07:52:53;;;;;;;13.45;12.55;;;;;;;29.22;74.24;153394.72;5093478;28;20597;-62
2022/11/17 07:55:20;;;;;;;12.00;11.18;;;;;;;29.89;69.58;153565.19;5093617;28;20657;-63
2022/11/17 07:57:53;;;;;;;11.93;11.32;;;;;;;28.99;73.47;153335.78;5093111;28;20291;-62
2022/11/17 08:00:20;;;;;;;13.07;11.70;;;;;;;28.18;80.01;153130.88;5093152;28;20180;-62
2022/11/17 08:02:47;;;;;;;12.15;10.90;;;;;;;28.30;79.19;153160.34;5093033;28;20200;-60
2022/11/17 08:05:16;;;;;;;12.30;11.40;;;;;;;28.82;77.22;153292.25;5093115;28;20657;-63
2022/11/17 08:07:46;;;;;;;11.75;11.13;;;;;;;28.48;79.20;153206.41;5093355;28;20180;-62
2022/11/17 08:10:15;;;;;;;13.23;11.25;;;;;;;28.59;78.41;153234.59;5093270;28;20231;-62
2022/11/17 08:12:42;;;;;;;12.57;11.60;;;;;;;28.93;76.10;153321.72;5093024;28;20184;-61
2022/11/17 08:15:09;;;;;;;13.35;11.98;;;;;;;28.78;77.59;153282.00;5093820;28;20283;-62
2022/11/17 08:17:36;;;;;;;13.60;12.35;;;;;;;28.01;81.90;153087.31;5092672;28;20215;-61
2022/11/17 08:20:04;;;;;;;13.45;12.23;;;;;;;27.82;82.34;153038.69;5090887;28;20188;-63
2022/11/17 08:22:31;;;;;;;13.90;12.45;;;;;;;27.60;83.77;152984.97;5093273;28;20188;-60
2022/11/17 08:24:58;;;;;;;12.20;11.35;;;;;;;26.83;87.95;152790.41;5093252;28;20192;-61
2022/11/17 08:27:26;;;;;;;12.25;11.35;;;;;;;26.53;91.41;152712.38;5092864;28;20652;-60
2022/11/17 08:29:56;;;;;;;13.07;11.57;;;;;;;27.79;88.23;153031.03;5092830;28;20184;-62
2022/11/17 08:32:23;;;;;;;11.32;10.70;;;;;;;28.73;77.70;153270.47;5092409;28;20242;-61
2022/11/17 08:34:50;;;;;;;11.90;11.20;;;;;;;28.88;76.84;153307.63;5092683;28;20635;-60
2022/11/17 08:37:17;;;;;;;13.52;11.20;;;;;;;28.44;78.94;153197.47;5091623;28;20293;-63
2022/11/17 08:39:44;;;;;;;12.70;11.50;;;;;;;28.32;79.08;153165.47;5091728;28;20224;-61
2022/11/17 08:42:11;;;;;;;12.73;11.45;;;;;;;26.82;86.52;152787.84;5092341;28;20198;-62
2022/11/17 08:44:39;;;;;;;11.68;10.70;;;;;;;27.62;85.25;152990.09;5092137;28;20188;-62
2022/11/17 08:47:06;;;;;;;11.77;10.88;;;;;;;28.62;76.50;153242.28;5092069;28;20267;-61
2022/11/17 08:49:33;;;;;;;13.15;11.77;;;;;;;28.41;79.01;153189.78;5092259;28;20192;-62
2022/11/17 08:52:00;;;;;;;12.63;11.63;;;;;;;27.58;83.00;152978.56;5092008;28;20188;-62
2022/11/17 08:54:27;;;;;;;12.73;11.65;;;;;;;26.68;89.68;152750.78;5091944;28;20192;-62
2022/11/17 08:56:57;;;;;;;13.05;12.10;;;;;;;25.69;95.48;152501.44;5091850;28;20198;-62
2022/11/17 08:59:24;;;;;;;12.52;11.70;;;;;;;25.01;100.00;152330.16;5092170;28;20207;-61
2022/11/17 09:01:53;;;;;;;12.98;11.85;;;;;;;24.35;100.00;152161.53;5092227;28;20203;-61
2022/11/17 09:04:20;;;;;;;14.98;13.48;;;;;;;23.56;100.00;151963.63;5092743;28;20191;-61
2022/11/17 09:06:46;;;;;;;14.35;13.20;;;;;;;23.36;100.00;151911.25;5092229;28;20192;-61
2022/11/17 09:09:13;;;;;;;13.75;12.48;;;;;;;22.93;100.00;151802.78;5091464;28;20176;-61
2022/11/17 09:11:40;;;;;;;13.63;12.52;;;;;;;22.38;100.00;151665.00;5091934;28;20186;-61
2022/11/17 09:14:07;;;;;;;12.68;11.52;;;;;;;21.82;100.00;151523.44;5091490;28;20206;-61
2022/11/17 09:16:35;;;;;;;11.90;10.98;;;;;;;21.73;100.00;151501.75;5091418;28;20188;-61
2022/11/17 09:19:03;;;;;;;10.57;9.95;;;;;;;21.75;100.00;151505.59;5091053;28;20277;-60
2022/11/17 09:21:31;;;;;;;10.87;10.03;;;;;;;21.71;100.00;151495.41;5090628;28;20194;-62
2022/11/17 09:23:58;;;;;;;15.40;10.65;;;;;;;21.71;100.00;151496.69;5091050;28;20647;-62
2022/11/17 09:26:25;;;;;;;16.65;9.88;;;;;;;21.35;100.00;151406.16;5091106;28;20188;-60
2022/11/17 09:28:52;;;;;;;9.23;8.27;;;;;;;20.82;100.00;151271.09;5091082;28;20184;-61
2022/11/17 09:31:21;;;;;;;10.40;6.80;;;;;;;20.49;100.00;151189.59;5091050;28;20191;-61
2022/11/17 09:33:48;;;;;;;7.53;6.33;;;;;;;20.26;100.00;151129.66;5089461;28;20286;-60
2022/11/17 09:36:17;;;;;;;9.93;6.27;;;;;;;20.07;100.00;151082.59;5088607;28;20671;-61
2022/11/17 09:38:44;;;;;;;6.67;6.17;;;;;;;19.99;100.00;151062.19;5090838;28;20215;-60
2022/11/17 09:41:21;;;;;;;7.10;6.40;;;;;;;19.94;100.00;151050.72;5089625;28;20215;-61
2022/11/17 09:43:54;;;;;;;7.03;6.33;;;;;;;19.82;100.00;151020.16;5088719;28;20187;-60
2022/11/17 09:46:27;;;;;;;8.60;6.67;;;;;;;19.42;100.00;150919.59;5090278;28;20184;-61
2022/11/17 09:49:05;;;;;;;8.30;6.90;;;;;;;19.30;100.00;150887.78;5091215;28;20184;-60
2022/11/17 09:51:38;;;;;;;6.30;6.00;;;;;;;19.11;100.00;150840.69;5092700;28;20580;-60
2022/11/17 09:54:13;;;;;;;7.23;6.67;;;;;;;18.78;100.00;150758.03;5094591;28;20192;-60
2022/11/17 09:56:40;;;;;;;7.43;6.67;;;;;;;18.31;100.00;150639.69;5092652;28;20205;-60
2022/11/17 09:59:14;;;;;;;9.67;6.87;;;;;;;18.03;100.00;150569.78;5095079;28;20200;-59
2022/11/17 10:01:41;;;;;;;7.87;7.13;;;;;;;17.91;100.00;150538.00;5093253;28;20638;-61
2022/11/17 10:04:12;;;;;;;8.33;7.90;;;;;;;17.74;100.00;150497.28;5094667;28;20187;-59
2022/11/17 10:06:44;;;;;;;8.50;7.90;;;;;;;17.80;100.00;150512.56;5094940;28;20562;-61
2022/11/17 10:09:20;;;;;;;9.10;8.70;;;;;;;17.86;100.00;150525.28;5092136;28;20271;-60
2022/11/17 10:11:47;;;;;;;10.43;8.50;;;;;;;17.86;100.00;150526.56;5094583;28;20219;-60
2022/11/17 10:14:18;;;;;;;9.13;8.43;;;;;;;17.57;100.00;137648.47;5094751;28;20188;-59
2022/11/17 10:16:51;;;;;;;9.60;9.00;;;;;;;17.86;100.00;134350.63;5094397;28;20264;-60
2022/11/17 10:19:21;;;;;;;12.73;9.07;;;;;;;17.68;100.00;132295.63;5094275;28;20207;-60
2022/11/17 10:21:54;;;;;;;9.30;8.43;;;;;;;17.53;100.00;117179.22;5094519;28;20216;-61
2022/11/17 10:24:34;;;;;;;9.23;8.73;;;;;;;17.59;100.00;95515.72;5094654;28;20188;-61
2022/11/17 10:27:02;;;;;;;9.87;9.00;;;;;;;17.62;100.00;75631.81;5093307;28;20270;-60
2022/11/17 10:29:30;;;;;;;9.23;8.70;;;;;;;17.41;100.00;61426.50;5091734;28;20669;-61
2022/11/17 10:31:58;;;;;;;9.20;8.37;;;;;;;17.38;100.00;51895.47;5094046;28;20204;-61
2022/11/17 10:34:33;;;;;;;9.40;8.60;;;;;;;17.24;100.00;42710.91;5093972;28;20191;-60
2022/11/17 10:37:07;;;;;;;8.47;8.07;;;;;;;17.05;100.00;40081.38;5094521;28;20197;-60
2022/11/17 10:39:39;;;;;;;8.77;8.03;;;;;;;17.03;100.00;35181.91;5094180;28;20207;-59
2022/11/17 10:42:22;;;;;;;8.47;7.97;;;;;;;16.98;100.00;22478.41;5094900;28;20272;-59
2022/11/17 10:44:56;;;;;;;8.53;7.97;;;;;;;16.88;100.00;15008.28;5094556;28;20184;-60
2022/11/17 10:47:30;;;;;;;9.10;8.10;;;;;;;16.90;100.00;11119.94;5095207;28;20200;-61
2022/11/17 10:50:15;;;;;;;9.47;8.83;;;;;;;16.88;100.00;9176.94;5094602;28;20184;-60
2022/11/17 10:52:43;;;;;;;10.03;9.33;;;;;;;16.85;100.00;9176.34;5094613;28;20260;-61
2022/11/17 10:55:35;;;;;;;9.33;8.57;;;;;;;16.76;100.00;8527.25;5095076;28;20645;-60
2022/11/17 10:58:23;;;;;;;12.53;9.33;;;;;;;16.84;100.00;9176.03;5084152;28;20215;-60
2022/11/17 11:00:53;;;;;;;10.13;9.13;;;;;;;16.75;100.00;8203.63;5093411;28;20216;-59
2022/11/17 11:03:22;;;;;;;10.57;9.33;;;;;;;16.81;100.00;8851.91;5094147;28;20202;-60
2022/11/17 11:06:01;;;;;;;14.60;10.33;;;;;;;16.94;100.00;9825.44;5094240;28;20274;-60
2022/11/17 11:08:36;;;;;;;10.93;10.00;;;;;;;16.82;100.00;8528.50;5094199;28;20184;-60
2022/11/17 11:11:11;;;;;;;13.57;11.33;;;;;;;16.90;100.00;8853.69;5094053;28;20191;-59
2022/11/17 11:13:46;;;;;;;13.63;12.23;;;;;;;16.99;100.00;8855.25;5094337;28;20191;-60
2022/11/17 11:16:13;;;;;;;16.00;14.37;;;;;;;16.95;100.00;10149.44;5093996;28;20194;-59
2022/11/17 11:18:40;;;;;;;16.17;14.63;;;;;;;16.96;100.00;10149.66;5093971;28;20208;-60
2022/11/17 11:21:18;;;;;;;14.93;13.70;;;;;;;17.04;100.00;15661.63;5093881;28;20237;-59
2022/11/17 11:23:56;;;;;;;20.60;14.83;;;;;;;17.06;100.00;16635.44;5094112;28;20270;-60
2022/11/17 11:26:44;;;;;;;16.77;15.07;;;;;;;17.01;100.00;10474.72;5093868;28;20184;-60
2022/11/17 11:29:22;;;;;;;13.63;12.37;;;;;;;17.12;100.00;8534.09;5093751;28;20241;-61
2022/11/17 11:32:00;;;;;;;14.67;13.40;;;;;;;17.02;100.00;5620.38;5093513;28;20210;-60
2022/11/17 11:34:47;;;;;;;17.53;13.43;;;;;;;16.89;100.00;2386.75;5094000;28;20504;-59
2022/11/17 11:37:16;;;;;;;13.80;12.80;;;;;;;16.75;100.00;-197.00;5093469;28;20245;-60
2022/11/17 11:39:55;;;;;;;14.83;13.77;;;;;;;16.80;100.00;-3422.31;5093756;28;20208;-60
2022/11/17 11:42:49;;;;;;;14.37;12.60;;;;;;;16.82;100.00;-3099.91;5093390;28;20586;-60
2022/11/17 11:45:41;;;;;;;17.23;15.77;;;;;;;16.74;100.00;-4389.25;5093763;28;20551;-60
2022/11/17 11:48:15;;;;;;;23.17;17.77;;;;;;;16.69;100.00;-4711.41;5093744;28;20192;-60
2022/11/17 11:50:50;;;;;;;22.23;16.80;;;;;;;16.66;100.00;-6965.94;5093246;28;20191;-61
2022/11/17 11:53:25;;;;;;;20.13;16.43;;;;;;;16.64;100.00;-6965.78;5093208;28;20184;-60